sensor_id;sensor_type;location;lat;lon;timestamp;pressure;altitude;pressure_sealevel;temperature
81177;BMP280;74095;48.270;14.200;2024-01-10T00:02:18;98859.72;;;-2.56
81177;BMP280;74095;48.270;14.200;2024-01-10T00:04:43;98858.53;;;-2.68
81177;BMP280;74095;48.270;14.200;2024-01-10T00:07:09;98871.69;;;-2.76
81177;BMP280;74095;48.270;14.200;2024-01-10T00:09:35;98861.59;;;-2.79
81177;BMP280;74095;48.270;14.200;2024-01-10T00:12:01;98853.19;;;-2.74
81177;BMP280;74095;48.270;14.200;2024-01-10T00:14:27;98857.88;;;-2.84
81177;BMP280;74095;48.270;14.200;2024-01-10T00:16:53;98867.34;;;-2.69
81177;BMP280;74095;48.270;14.200;2024-01-10T00:19:19;98869.44;;;-2.50
81177;BMP280;74095;48.270;14.200;2024-01-10T00:21:45;98843.94;;;-2.48
81177;BMP280;74095;48.270;14.200;2024-01-10T00:24:11;98849.44;;;-2.72
81177;BMP280;74095;48.270;14.200;2024-01-10T00:26:37;98860.94;;;-2.81
81177;BMP280;74095;48.270;14.200;2024-01-10T00:29:02;98864.94;;;-2.70
81177;BMP280;74095;48.270;14.200;2024-01-10T00:31:28;98854.94;;;-2.67
81177;BMP280;74095;48.270;14.200;2024-01-10T00:33:54;98844.22;;;-2.57
81177;BMP280;74095;48.270;14.200;2024-01-10T00:36:20;98855.06;;;-2.60
81177;BMP280;74095;48.270;14.200;2024-01-10T00:38:46;98840.88;;;-2.66
81177;BMP280;74095;48.270;14.200;2024-01-10T00:41:12;98850.03;;;-2.70
81177;BMP280;74095;48.270;14.200;2024-01-10T00:43:38;98854.50;;;-2.56
81177;BMP280;74095;48.270;14.200;2024-01-10T00:46:04;98859.63;;;-2.62
81177;BMP280;74095;48.270;14.200;2024-01-10T00:48:30;98860.81;;;-2.50
81177;BMP280;74095;48.270;14.200;2024-01-10T00:50:56;98825.47;;;-2.75
81177;BMP280;74095;48.270;14.200;2024-01-10T00:53:22;98868.63;;;-2.65
81177;BMP280;74095;48.270;14.200;2024-01-10T00:55:48;98865.72;;;-2.70
81177;BMP280;74095;48.270;14.200;2024-01-10T00:58:14;98859.13;;;-2.80
81177;BMP280;74095;48.270;14.200;2024-01-10T01:00:40;98877.84;;;-2.92
81177;BMP280;74095;48.270;14.200;2024-01-10T01:03:06;98876.16;;;-2.84
81177;BMP280;74095;48.270;14.200;2024-01-10T01:05:32;98870.69;;;-3.12
81177;BMP280;74095;48.270;14.200;2024-01-10T01:07:58;98874.78;;;-2.95
81177;BMP280;74095;48.270;14.200;2024-01-10T01:10:24;98881.47;;;-2.93
81177;BMP280;74095;48.270;14.200;2024-01-10T01:12:50;98888.50;;;-3.16
81177;BMP280;74095;48.270;14.200;2024-01-10T01:15:15;98901.31;;;-3.06
81177;BMP280;74095;48.270;14.200;2024-01-10T01:17:41;98894.00;;;-2.88
81177;BMP280;74095;48.270;14.200;2024-01-10T01:20:08;98869.53;;;-3.10
81177;BMP280;74095;48.270;14.200;2024-01-10T01:22:34;98895.53;;;-3.16
81177;BMP280;74095;48.270;14.200;2024-01-10T01:25:00;98880.88;;;-3.03
81177;BMP280;74095;48.270;14.200;2024-01-10T01:27:26;98881.94;;;-2.89
81177;BMP280;74095;48.270;14.200;2024-01-10T01:29:52;98889.38;;;-2.86
81177;BMP280;74095;48.270;14.200;2024-01-10T01:32:18;98885.53;;;-2.90
81177;BMP280;74095;48.270;14.200;2024-01-10T01:34:44;98888.19;;;-2.98
81177;BMP280;74095;48.270;14.200;2024-01-10T01:37:09;98884.56;;;-2.97
81177;BMP280;74095;48.270;14.200;2024-01-10T01:39:36;98888.31;;;-2.92
81177;BMP280;74095;48.270;14.200;2024-01-10T01:42:02;98886.69;;;-2.93
81177;BMP280;74095;48.270;14.200;2024-01-10T01:44:27;98873.78;;;-3.32
81177;BMP280;74095;48.270;14.200;2024-01-10T01:46:53;98885.03;;;-3.31
81177;BMP280;74095;48.270;14.200;2024-01-10T01:49:19;98893.31;;;-3.28
81177;BMP280;74095;48.270;14.200;2024-01-10T01:51:46;98887.88;;;-3.18
81177;BMP280;74095;48.270;14.200;2024-01-10T01:54:12;98888.41;;;-3.08
81177;BMP280;74095;48.270;14.200;2024-01-10T01:56:39;98895.81;;;-3.11
81177;BMP280;74095;48.270;14.200;2024-01-10T01:59:05;98886.34;;;-3.35
81177;BMP280;74095;48.270;14.200;2024-01-10T02:01:32;98890.34;;;-3.25
81177;BMP280;74095;48.270;14.200;2024-01-10T02:03:59;98889.47;;;-3.40
81177;BMP280;74095;48.270;14.200;2024-01-10T02:06:26;98894.56;;;-3.23
81177;BMP280;74095;48.270;14.200;2024-01-10T02:08:52;98890.59;;;-3.34
81177;BMP280;74095;48.270;14.200;2024-01-10T02:11:18;98895.50;;;-3.39
81177;BMP280;74095;48.270;14.200;2024-01-10T02:13:44;98887.06;;;-3.18
81177;BMP280;74095;48.270;14.200;2024-01-10T02:16:11;98883.47;;;-3.17
81177;BMP280;74095;48.270;14.200;2024-01-10T02:18:38;98880.91;;;-3.26
81177;BMP280;74095;48.270;14.200;2024-01-10T02:21:04;98863.63;;;-3.27
81177;BMP280;74095;48.270;14.200;2024-01-10T02:23:30;98880.22;;;-3.19
81177;BMP280;74095;48.270;14.200;2024-01-10T02:25:56;98862.69;;;-3.34
81177;BMP280;74095;48.270;14.200;2024-01-10T02:28:22;98878.69;;;-3.14
81177;BMP280;74095;48.270;14.200;2024-01-10T02:30:52;98877.03;;;-2.92
81177;BMP280;74095;48.270;14.200;2024-01-10T02:33:20;98863.81;;;-2.91
81177;BMP280;74095;48.270;14.200;2024-01-10T02:35:46;98876.53;;;-2.73
81177;BMP280;74095;48.270;14.200;2024-01-10T02:38:12;98870.06;;;-2.77
81177;BMP280;74095;48.270;14.200;2024-01-10T02:40:37;98865.44;;;-2.75
81177;BMP280;74095;48.270;14.200;2024-01-10T02:43:03;98867.34;;;-2.69
81177;BMP280;74095;48.270;14.200;2024-01-10T02:45:29;98858.66;;;-2.61
81177;BMP280;74095;48.270;14.200;2024-01-10T02:47:55;98848.19;;;-2.76
81177;BMP280;74095;48.270;14.200;2024-01-10T02:50:21;98847.63;;;-2.86
81177;BMP280;74095;48.270;14.200;2024-01-10T02:52:47;98849.88;;;-2.83
81177;BMP280;74095;48.270;14.200;2024-01-10T02:55:13;98857.34;;;-2.80
81177;BMP280;74095;48.270;14.200;2024-01-10T02:57:39;98856.97;;;-2.92
81177;BMP280;74095;48.270;14.200;2024-01-10T03:00:06;98845.78;;;-3.00
81177;BMP280;74095;48.270;14.200;2024-01-10T03:02:32;98845.25;;;-2.96
81177;BMP280;74095;48.270;14.200;2024-01-10T03:04:58;98834.41;;;-3.07
81177;BMP280;74095;48.270;14.200;2024-01-10T03:07:24;98838.91;;;-2.93
81177;BMP280;74095;48.270;14.200;2024-01-10T03:09:53;98849.66;;;-2.96
81177;BMP280;74095;48.270;14.200;2024-01-10T03:12:19;98837.50;;;-3.04
81177;BMP280;74095;48.270;14.200;2024-01-10T03:14:45;98848.66;;;-2.95
81177;BMP280;74095;48.270;14.200;2024-01-10T03:17:11;98850.28;;;-2.94
81177;BMP280;74095;48.270;14.200;2024-01-10T03:19:37;98828.50;;;-3.16
81177;BMP280;74095;48.270;14.200;2024-01-10T03:22:08;98849.34;;;-2.93
81177;BMP280;74095;48.270;14.200;2024-01-10T03:24:34;98849.66;;;-2.96
81177;BMP280;74095;48.270;14.200;2024-01-10T03:27:00;98842.97;;;-3.13
81177;BMP280;74095;48.270;14.200;2024-01-10T03:29:26;98845.34;;;-3.27
81177;BMP280;74095;48.270;14.200;2024-01-10T03:31:52;98842.53;;;-3.40
81177;BMP280;74095;48.270;14.200;2024-01-10T03:34:18;98825.19;;;-3.33
81177;BMP280;74095;48.270;14.200;2024-01-10T03:36:44;98843.38;;;-3.47
81177;BMP280;74095;48.270;14.200;2024-01-10T03:39:10;98841.47;;;-3.31
81177;BMP280;74095;48.270;14.200;2024-01-10T03:41:36;98842.38;;;-3.23
81177;BMP280;74095;48.270;14.200;2024-01-10T03:44:02;98831.38;;;-3.34
81177;BMP280;74095;48.270;14.200;2024-01-10T03:46:28;98831.09;;;-3.39
81177;BMP280;74095;48.270;14.200;2024-01-10T03:48:54;98845.84;;;-3.46
81177;BMP280;74095;48.270;14.200;2024-01-10T03:51:20;98844.25;;;-3.55
81177;BMP280;74095;48.270;14.200;2024-01-10T03:53:47;98826.63;;;-3.53
81177;BMP280;74095;48.270;14.200;2024-01-10T03:56:15;98840.84;;;-3.55
81177;BMP280;74095;48.270;14.200;2024-01-10T03:58:41;98824.19;;;-3.77
81177;BMP280;74095;48.270;14.200;2024-01-10T04:01:08;98826.97;;;-3.79
81177;BMP280;74095;48.270;14.200;2024-01-10T04:03:35;98840.53;;;-3.83
81177;BMP280;74095;48.270;14.200;2024-01-10T04:06:01;98829.34;;;-3.69
81177;BMP280;74095;48.270;14.200;2024-01-10T04:08:28;98840.88;;;-3.86
81177;BMP280;74095;48.270;14.200;2024-01-10T04:10:54;98836.47;;;-3.63
81177;BMP280;74095;48.270;14.200;2024-01-10T04:13:20;98835.44;;;-3.54
81177;BMP280;74095;48.270;14.200;2024-01-10T04:15:46;98840.63;;;-3.46
81177;BMP280;74095;48.270;14.200;2024-01-10T04:18:12;98804.75;;;-3.67
81177;BMP280;74095;48.270;14.200;2024-01-10T04:20:38;98841.38;;;-3.60
81177;BMP280;74095;48.270;14.200;2024-01-10T04:23:04;98820.72;;;-3.47
81177;BMP280;74095;48.270;14.200;2024-01-10T04:25:30;98820.78;;;-3.55
81177;BMP280;74095;48.270;14.200;2024-01-10T04:27:56;98795.69;;;-3.56
81177;BMP280;74095;48.270;14.200;2024-01-10T04:30:23;98822.13;;;-3.59
81177;BMP280;74095;48.270;14.200;2024-01-10T04:32:49;98816.44;;;-3.62
81177;BMP280;74095;48.270;14.200;2024-01-10T04:35:15;98818.97;;;-3.77
81177;BMP280;74095;48.270;14.200;2024-01-10T04:37:41;98832.66;;;-3.75
81177;BMP280;74095;48.270;14.200;2024-01-10T04:40:07;98824.16;;;-4.00
81177;BMP280;74095;48.270;14.200;2024-01-10T04:42:33;98821.16;;;-3.89
81177;BMP280;74095;48.270;14.200;2024-01-10T04:44:59;98834.81;;;-3.56
81177;BMP280;74095;48.270;14.200;2024-01-10T04:47:25;98838.09;;;-3.62
81177;BMP280;74095;48.270;14.200;2024-01-10T04:49:51;98834.28;;;-3.29
81177;BMP280;74095;48.270;14.200;2024-01-10T04:52:16;98826.59;;;-3.45
81177;BMP280;74095;48.270;14.200;2024-01-10T04:54:42;98825.63;;;-3.52
81177;BMP280;74095;48.270;14.200;2024-01-10T04:57:08;98850.00;;;-3.59
81177;BMP280;74095;48.270;14.200;2024-01-10T04:59:34;98847.78;;;-3.48
81177;BMP280;74095;48.270;14.200;2024-01-10T05:02:00;98839.16;;;-3.48
81177;BMP280;74095;48.270;14.200;2024-01-10T05:04:26;98849.09;;;-3.06
81177;BMP280;74095;48.270;14.200;2024-01-10T05:06:52;98844.25;;;-3.32
81177;BMP280;74095;48.270;14.200;2024-01-10T05:09:18;98838.41;;;-3.57
81177;BMP280;74095;48.270;14.200;2024-01-10T05:11:44;98849.81;;;-3.58
81177;BMP280;74095;48.270;14.200;2024-01-10T05:14:14;98848.13;;;-3.51
81177;BMP280;74095;48.270;14.200;2024-01-10T05:16:40;98847.97;;;-3.72
81177;BMP280;74095;48.270;14.200;2024-01-10T05:19:05;98853.84;;;-3.78
81177;BMP280;74095;48.270;14.200;2024-01-10T05:21:32;98861.53;;;-3.54
81177;BMP280;74095;48.270;14.200;2024-01-10T05:23:58;98867.00;;;-3.41
81177;BMP280;74095;48.270;14.200;2024-01-10T05:26:24;98854.41;;;-3.60
81177;BMP280;74095;48.270;14.200;2024-01-10T05:28:50;98855.03;;;-3.58
81177;BMP280;74095;48.270;14.200;2024-01-10T05:31:16;98868.56;;;-3.32
81177;BMP280;74095;48.270;14.200;2024-01-10T05:33:42;98856.94;;;-3.52
81177;BMP280;74095;48.270;14.200;2024-01-10T05:36:09;98870.25;;;-3.39
81177;BMP280;74095;48.270;14.200;2024-01-10T05:38:38;98871.22;;;-3.40
81177;BMP280;74095;48.270;14.200;2024-01-10T05:41:05;98880.31;;;-3.36
81177;BMP280;74095;48.270;14.200;2024-01-10T05:43:31;98886.47;;;-3.29
81177;BMP280;74095;48.270;14.200;2024-01-10T05:45:57;98879.72;;;-3.23
81177;BMP280;74095;48.270;14.200;2024-01-10T05:48:24;98876.72;;;-3.35
81177;BMP280;74095;48.270;14.200;2024-01-10T05:50:50;98888.78;;;-3.34
81177;BMP280;74095;48.270;14.200;2024-01-10T05:53:17;98879.97;;;-3.33
81177;BMP280;74095;48.270;14.200;2024-01-10T05:55:43;98885.44;;;-3.42
81177;BMP280;74095;48.270;14.200;2024-01-10T05:58:10;98890.19;;;-3.46
81177;BMP280;74095;48.270;14.200;2024-01-10T06:00:36;98896.38;;;-3.24
81177;BMP280;74095;48.270;14.200;2024-01-10T06:03:03;98895.25;;;-3.30
81177;BMP280;74095;48.270;14.200;2024-01-10T06:05:29;98891.09;;;-3.39
81177;BMP280;74095;48.270;14.200;2024-01-10T06:07:55;98884.34;;;-3.56
81177;BMP280;74095;48.270;14.200;2024-01-10T06:10:20;98895.50;;;-3.39
81177;BMP280;74095;48.270;14.200;2024-01-10T06:12:46;98904.47;;;-3.64
81177;BMP280;74095;48.270;14.200;2024-01-10T06:15:12;98901.50;;;-3.61
81177;BMP280;74095;48.270;14.200;2024-01-10T06:17:38;98900.94;;;-3.49
81177;BMP280;74095;48.270;14.200;2024-01-10T06:20:05;98909.53;;;-3.40
81177;BMP280;74095;48.270;14.200;2024-01-10T06:22:33;98910.34;;;-3.40
81177;BMP280;74095;48.270;14.200;2024-01-10T06:24:59;98921.38;;;-3.30
81177;BMP280;74095;48.270;14.200;2024-01-10T06:27:25;98892.47;;;-3.43
81177;BMP280;74095;48.270;14.200;2024-01-10T06:29:51;98900.22;;;-3.35
81177;BMP280;74095;48.270;14.200;2024-01-10T06:32:17;98911.13;;;-3.31
81177;BMP280;74095;48.270;14.200;2024-01-10T06:34:43;98919.72;;;-3.31
81177;BMP280;74095;48.270;14.200;2024-01-10T06:37:09;98893.00;;;-3.55
81177;BMP280;74095;48.270;14.200;2024-01-10T06:39:35;98915.53;;;-3.62
81177;BMP280;74095;48.270;14.200;2024-01-10T06:42:01;98932.72;;;-3.76
81177;BMP280;74095;48.270;14.200;2024-01-10T06:44:30;98934.22;;;-3.51
81177;BMP280;74095;48.270;14.200;2024-01-10T06:46:56;98930.38;;;-3.63
81177;BMP280;74095;48.270;14.200;2024-01-10T06:49:22;98930.31;;;-3.55
81177;BMP280;74095;48.270;14.200;2024-01-10T06:51:47;98937.63;;;-3.42
81177;BMP280;74095;48.270;14.200;2024-01-10T06:54:14;98942.03;;;-3.43
81177;BMP280;74095;48.270;14.200;2024-01-10T06:56:40;98943.25;;;-3.61
81177;BMP280;74095;48.270;14.200;2024-01-10T06:59:06;98939.41;;;-3.51
81177;BMP280;74095;48.270;14.200;2024-01-10T07:01:32;98943.81;;;-3.43
81177;BMP280;74095;48.270;14.200;2024-01-10T07:03:58;98933.66;;;-3.38
81177;BMP280;74095;48.270;14.200;2024-01-10T07:06:24;98938.75;;;-3.45
81177;BMP280;74095;48.270;14.200;2024-01-10T07:08:50;98950.59;;;-3.73
81177;BMP280;74095;48.270;14.200;2024-01-10T07:11:17;98943.47;;;-3.71
81177;BMP280;74095;48.270;14.200;2024-01-10T07:13:43;98939.41;;;-3.51
81177;BMP280;74095;48.270;14.200;2024-01-10T07:16:09;98947.72;;;-3.47
81177;BMP280;74095;48.270;14.200;2024-01-10T07:18:36;98957.03;;;-3.53
81177;BMP280;74095;48.270;14.200;2024-01-10T07:21:02;98966.16;;;-3.18
81177;BMP280;74095;48.270;14.200;2024-01-10T07:23:28;98963.13;;;-3.07
81177;BMP280;74095;48.270;14.200;2024-01-10T07:25:53;98947.47;;;-2.84
81177;BMP280;74095;48.270;14.200;2024-01-10T07:28:20;98964.56;;;-2.59
81177;BMP280;74095;48.270;14.200;2024-01-10T07:30:46;98960.69;;;-2.86
81177;BMP280;74095;48.270;14.200;2024-01-10T07:33:12;98956.97;;;-2.68
81177;BMP280;74095;48.270;14.200;2024-01-10T07:35:38;98966.59;;;-2.69
81177;BMP280;74095;48.270;14.200;2024-01-10T07:38:05;98969.28;;;-2.77
81177;BMP280;74095;48.270;14.200;2024-01-10T07:40:34;98967.94;;;-2.88
81177;BMP280;74095;48.270;14.200;2024-01-10T07:43:00;98948.19;;;-2.90
81177;BMP280;74095;48.270;14.200;2024-01-10T07:45:27;98978.28;;;-2.42
81177;BMP280;74095;48.270;14.200;2024-01-10T07:47:53;98973.91;;;-2.12
81177;BMP280;74095;48.270;14.200;2024-01-10T07:50:19;98968.56;;;-2.04
81177;BMP280;74095;48.270;14.200;2024-01-10T07:52:45;98982.28;;;-1.87
81177;BMP280;74095;48.270;14.200;2024-01-10T07:55:14;98968.13;;;-1.93
81177;BMP280;74095;48.270;14.200;2024-01-10T07:57:40;98989.25;;;-1.80
81177;BMP280;74095;48.270;14.200;2024-01-10T08:00:08;98979.69;;;-1.73
81177;BMP280;74095;48.270;14.200;2024-01-10T08:02:39;98984.84;;;-1.43
81177;BMP280;74095;48.270;14.200;2024-01-10T08:05:06;98977.16;;;-1.81
81177;BMP280;74095;48.270;14.200;2024-01-10T08:07:36;98978.16;;;-1.82
81177;BMP280;74095;48.270;14.200;2024-01-10T08:10:06;98994.78;;;-1.53
81177;BMP280;74095;48.270;14.200;2024-01-10T08:12:32;98985.59;;;-1.49
81177;BMP280;74095;48.270;14.200;2024-01-10T08:14:58;98983.72;;;-1.19
81177;BMP280;74095;48.270;14.200;2024-01-10T08:17:24;98998.25;;;-0.96
81177;BMP280;74095;48.270;14.200;2024-01-10T08:19:51;99003.84;;;-0.99
81177;BMP280;74095;48.270;14.200;2024-01-10T08:22:17;98993.81;;;-0.95
81177;BMP280;74095;48.270;14.200;2024-01-10T08:24:45;99002.84;;;-0.55
81177;BMP280;74095;48.270;14.200;2024-01-10T08:27:12;99001.16;;;-0.35
81177;BMP280;74095;48.270;14.200;2024-01-10T08:29:38;99002.97;;;-0.35
81177;BMP280;74095;48.270;14.200;2024-01-10T08:32:04;99002.34;;;-0.87
81177;BMP280;74095;48.270;14.200;2024-01-10T08:34:30;99016.69;;;-0.61
81177;BMP280;74095;48.270;14.200;2024-01-10T08:36:56;99006.50;;;-0.77
81177;BMP280;74095;48.270;14.200;2024-01-10T08:39:22;99003.44;;;-0.53
81177;BMP280;74095;48.270;14.200;2024-01-10T08:41:50;99011.59;;;-0.42
81177;BMP280;74095;48.270;14.200;2024-01-10T08:44:16;99022.69;;;-0.18
81177;BMP280;74095;48.270;14.200;2024-01-10T08:46:42;99017.59;;;0.08
81177;BMP280;74095;48.270;14.200;2024-01-10T08:49:08;99024.59;;;0.42
81177;BMP280;74095;48.270;14.200;2024-01-10T08:51:34;99014.13;;;0.01
81177;BMP280;74095;48.270;14.200;2024-01-10T08:54:00;99026.19;;;0.30
81177;BMP280;74095;48.270;14.200;2024-01-10T08:56:26;99020.13;;;0.36
81177;BMP280;74095;48.270;14.200;2024-01-10T08:58:52;99013.25;;;-0.13
81177;BMP280;74095;48.270;14.200;2024-01-10T09:01:18;99030.22;;;0.26
81177;BMP280;74095;48.270;14.200;2024-01-10T09:03:46;99005.00;;;0.31
81177;BMP280;74095;48.270;14.200;2024-01-10T09:06:12;99016.16;;;0.53
81177;BMP280;74095;48.270;14.200;2024-01-10T09:08:38;99008.19;;;0.33
81177;BMP280;74095;48.270;14.200;2024-01-10T09:11:05;99020.00;;;0.57
81177;BMP280;74095;48.270;14.200;2024-01-10T09:13:31;99012.78;;;0.72
81177;BMP280;74095;48.270;14.200;2024-01-10T09:15:57;99015.81;;;0.69
81177;BMP280;74095;48.270;14.200;2024-01-10T09:18:23;99018.50;;;0.96
81177;BMP280;74095;48.270;14.200;2024-01-10T09:20:49;99022.78;;;1.36
81177;BMP280;74095;48.270;14.200;2024-01-10T09:23:15;99030.47;;;1.38
81177;BMP280;74095;48.270;14.200;2024-01-10T09:25:41;99013.09;;;1.30
81177;BMP280;74095;48.270;14.200;2024-01-10T09:28:07;99013.47;;;1.60
81177;BMP280;74095;48.270;14.200;2024-01-10T09:30:33;99007.81;;;1.69
81177;BMP280;74095;48.270;14.200;2024-01-10T09:33:00;98999.91;;;1.63
81177;BMP280;74095;48.270;14.200;2024-01-10T09:35:26;99012.28;;;1.23
81177;BMP280;74095;48.270;14.200;2024-01-10T09:37:52;99015.47;;;1.71
81177;BMP280;74095;48.270;14.200;2024-01-10T09:40:19;99010.63;;;1.61
81177;BMP280;74095;48.270;14.200;2024-01-10T09:42:49;99024.59;;;1.75
81177;BMP280;74095;48.270;14.200;2024-01-10T09:45:16;99028.81;;;1.83
81177;BMP280;74095;48.270;14.200;2024-01-10T09:47:48;99011.44;;;1.68
81177;BMP280;74095;48.270;14.200;2024-01-10T09:50:14;99003.66;;;1.93
81177;BMP280;74095;48.270;14.200;2024-01-10T09:52:53;99009.22;;;1.59
81177;BMP280;74095;48.270;14.200;2024-01-10T09:55:21;99012.44;;;1.81
81177;BMP280;74095;48.270;14.200;2024-01-10T09:57:48;99014.97;;;2.20
81177;BMP280;74095;48.270;14.200;2024-01-10T10:00:15;99016.16;;;2.24
81177;BMP280;74095;48.270;14.200;2024-01-10T10:02:42;99017.72;;;1.74
81177;BMP280;74095;48.270;14.200;2024-01-10T10:05:12;99019.53;;;1.74
81177;BMP280;74095;48.270;14.200;2024-01-10T10:07:46;99006.91;;;2.02
81177;BMP280;74095;48.270;14.200;2024-01-10T10:10:13;99007.06;;;2.20
81177;BMP280;74095;48.270;14.200;2024-01-10T10:12:51;99012.66;;;1.73
81177;BMP280;74095;48.270;14.200;2024-01-10T10:15:21;99002.66;;;2.01
81177;BMP280;74095;48.270;14.200;2024-01-10T10:17:49;99018.09;;;1.84
81177;BMP280;74095;48.270;14.200;2024-01-10T10:20:26;99009.41;;;2.35
81177;BMP280;74095;48.270;14.200;2024-01-10T10:23:05;99009.31;;;2.61
81177;BMP280;74095;48.270;14.200;2024-01-10T10:25:43;99010.88;;;2.69
81177;BMP280;74095;48.270;14.200;2024-01-10T10:28:10;99001.22;;;2.87
81177;BMP280;74095;48.270;14.200;2024-01-10T10:30:35;99006.13;;;2.84
81177;BMP280;74095;48.270;14.200;2024-01-10T10:33:02;99013.81;;;2.85
81177;BMP280;74095;48.270;14.200;2024-01-10T10:35:29;98995.88;;;2.69
81177;BMP280;74095;48.270;14.200;2024-01-10T10:37:54;99017.66;;;2.83
81177;BMP280;74095;48.270;14.200;2024-01-10T10:40:21;99001.81;;;3.14
81177;BMP280;74095;48.270;14.200;2024-01-10T10:42:56;98980.59;;;2.78
81177;BMP280;74095;48.270;14.200;2024-01-10T10:45:23;98987.34;;;2.98
81177;BMP280;74095;48.270;14.200;2024-01-10T10:48:00;99000.53;;;3.23
81177;BMP280;74095;48.270;14.200;2024-01-10T10:50:34;98988.47;;;3.09
81177;BMP280;74095;48.270;14.200;2024-01-10T10:53:03;98996.38;;;3.09
81177;BMP280;74095;48.270;14.200;2024-01-10T10:55:29;98996.22;;;3.04
81177;BMP280;74095;48.270;14.200;2024-01-10T10:57:55;98975.56;;;3.01
81177;BMP280;74095;48.270;14.200;2024-01-10T11:00:22;98976.97;;;3.28
81177;BMP280;74095;48.270;14.200;2024-01-10T11:02:55;98960.31;;;3.28
81177;BMP280;74095;48.270;14.200;2024-01-10T11:05:24;98957.84;;;3.33
81177;BMP280;74095;48.270;14.200;2024-01-10T11:07:50;98973.94;;;3.00
81177;BMP280;74095;48.270;14.200;2024-01-10T11:13:10;98955.25;;;3.08
81177;BMP280;74095;48.270;14.200;2024-01-10T11:16:25;98972.06;;;3.07
81177;BMP280;74095;48.270;14.200;2024-01-10T11:24:38;98955.03;;;2.53
81177;BMP280;74095;48.270;14.200;2024-01-10T11:27:12;98948.03;;;2.34
81177;BMP280;74095;48.270;14.200;2024-01-10T11:29:39;98961.38;;;2.39
81177;BMP280;74095;48.270;14.200;2024-01-10T11:32:13;98933.53;;;2.25
81177;BMP280;74095;48.270;14.200;2024-01-10T11:34:50;98939.75;;;1.86
81177;BMP280;74095;48.270;14.200;2024-01-10T11:37:16;98941.34;;;1.87
81177;BMP280;74095;48.270;14.200;2024-01-10T11:39:42;98927.66;;;1.65
81177;BMP280;74095;48.270;14.200;2024-01-10T11:42:09;98928.53;;;1.33
81177;BMP280;74095;48.270;14.200;2024-01-10T11:44:49;98935.78;;;1.51
81177;BMP280;74095;48.270;14.200;2024-01-10T11:47:16;98927.50;;;1.41
81177;BMP280;74095;48.270;14.200;2024-01-10T11:50:04;98937.22;;;1.53
81177;BMP280;74095;48.270;14.200;2024-01-10T11:52:33;98932.13;;;1.65
81177;BMP280;74095;48.270;14.200;2024-01-10T11:55:02;98916.59;;;1.37
81177;BMP280;74095;48.270;14.200;2024-01-10T11:57:30;98924.44;;;1.63
81177;BMP280;74095;48.270;14.200;2024-01-10T11:59:58;98914.81;;;1.18
81177;BMP280;74095;48.270;14.200;2024-01-10T12:02:26;98929.75;;;1.37
81177;BMP280;74095;48.270;14.200;2024-01-10T12:04:53;98923.44;;;1.38
81177;BMP280;74095;48.270;14.200;2024-01-10T12:07:20;98908.31;;;1.27
81177;BMP280;74095;48.270;14.200;2024-01-10T12:09:46;98913.16;;;1.43
81177;BMP280;74095;48.270;14.200;2024-01-10T12:12:13;98921.81;;;1.50
81177;BMP280;74095;48.270;14.200;2024-01-10T12:14:40;98915.53;;;1.64
81177;BMP280;74095;48.270;14.200;2024-01-10T12:17:06;98918.34;;;1.69
81177;BMP280;74095;48.270;14.200;2024-01-10T12:19:36;98917.03;;;1.92
81177;BMP280;74095;48.270;14.200;2024-01-10T12:22:05;98907.03;;;1.62
81177;BMP280;74095;48.270;14.200;2024-01-10T12:24:31;98916.63;;;1.88
81177;BMP280;74095;48.270;14.200;2024-01-10T12:26:58;98907.78;;;1.83
81177;BMP280;74095;48.270;14.200;2024-01-10T12:29:25;98911.94;;;1.39
81177;BMP280;74095;48.270;14.200;2024-01-10T12:31:51;98914.59;;;1.33
81177;BMP280;74095;48.270;14.200;2024-01-10T12:34:19;98890.88;;;1.59
81177;BMP280;74095;48.270;14.200;2024-01-10T12:36:47;98894.88;;;1.68
81177;BMP280;74095;48.270;14.200;2024-01-10T12:39:13;98892.03;;;1.69
81177;BMP280;74095;48.270;14.200;2024-01-10T12:41:40;98880.69;;;1.76
81177;BMP280;74095;48.270;14.200;2024-01-10T12:44:07;98895.75;;;1.93
81177;BMP280;74095;48.270;14.200;2024-01-10T12:46:33;98895.50;;;1.70
81177;BMP280;74095;48.270;14.200;2024-01-10T12:49:04;98895.03;;;1.80
81177;BMP280;74095;48.270;14.200;2024-01-10T12:51:34;98891.22;;;1.69
81177;BMP280;74095;48.270;14.200;2024-01-10T12:54:02;98894.94;;;1.48
81177;BMP280;74095;48.270;14.200;2024-01-10T12:56:30;98885.78;;;1.70
81177;BMP280;74095;48.270;14.200;2024-01-10T12:58:56;98884.97;;;1.63
81177;BMP280;74095;48.270;14.200;2024-01-10T13:01:24;98885.63;;;1.52
81177;BMP280;74095;48.270;14.200;2024-01-10T13:03:50;98886.34;;;1.79
81177;BMP280;74095;48.270;14.200;2024-01-10T13:06:17;98876.00;;;1.78
81177;BMP280;74095;48.270;14.200;2024-01-10T13:08:45;98887.91;;;1.87
81177;BMP280;74095;48.270;14.200;2024-01-10T13:11:11;98892.88;;;1.50
81177;BMP280;74095;48.270;14.200;2024-01-10T13:13:40;98855.34;;;1.17
81177;BMP280;74095;48.270;14.200;2024-01-10T13:16:06;98882.47;;;0.98
81177;BMP280;74095;48.270;14.200;2024-01-10T13:18:32;98892.97;;;1.24
81177;BMP280;74095;48.270;14.200;2024-01-10T13:20:59;98897.22;;;1.32
81177;BMP280;74095;48.270;14.200;2024-01-10T13:23:25;98888.94;;;1.08
81177;BMP280;74095;48.270;14.200;2024-01-10T13:25:51;98896.97;;;1.40
81177;BMP280;74095;48.270;14.200;2024-01-10T13:28:20;98887.25;;;1.40
81177;BMP280;74095;48.270;14.200;2024-01-10T13:30:46;98898.34;;;1.55
81177;BMP280;74095;48.270;14.200;2024-01-10T13:33:12;98876.19;;;1.25
81177;BMP280;74095;48.270;14.200;2024-01-10T13:35:39;98904.88;;;1.33
81177;BMP280;74095;48.270;14.200;2024-01-10T13:38:05;98903.03;;;1.40
81177;BMP280;74095;48.270;14.200;2024-01-10T13:40:31;98896.88;;;1.66
81177;BMP280;74095;48.270;14.200;2024-01-10T13:43:00;98903.88;;;1.92
81177;BMP280;74095;48.270;14.200;2024-01-10T13:45:29;98910.13;;;2.04
81177;BMP280;74095;48.270;14.200;2024-01-10T13:47:55;98907.19;;;1.81
81177;BMP280;74095;48.270;14.200;2024-01-10T13:50:21;98900.13;;;1.75
81177;BMP280;74095;48.270;14.200;2024-01-10T13:52:47;98911.78;;;1.92
81177;BMP280;74095;48.270;14.200;2024-01-10T13:55:13;98905.78;;;1.78
81177;BMP280;74095;48.270;14.200;2024-01-10T13:57:39;98904.19;;;1.70
81177;BMP280;74095;48.270;14.200;2024-01-10T14:00:06;98905.22;;;1.56
81177;BMP280;74095;48.270;14.200;2024-01-10T14:02:43;98903.28;;;1.90
81177;BMP280;74095;48.270;14.200;2024-01-10T14:05:09;98894.25;;;1.73
81177;BMP280;74095;48.270;14.200;2024-01-10T14:07:36;98901.69;;;1.82
81177;BMP280;74095;48.270;14.200;2024-01-10T14:10:02;98901.66;;;1.89